sensor_id;sensor_type;location;lat;lon;timestamp;temperature;humidity
31542;DHT22;18152;49.986;8.646;2022-10-31T00:03:41;9.40;99.90
31542;DHT22;18152;49.986;8.646;2022-10-31T00:06:06;9.30;99.90
31542;DHT22;18152;49.986;8.646;2022-10-31T00:08:32;9.30;99.90
31542;DHT22;18152;49.986;8.646;2022-10-31T00:10:58;9.30;99.90
31542;DHT22;18152;49.986;8.646;2022-10-31T00:13:23;9.30;99.90
31542;DHT22;18152;49.986;8.646;2022-10-31T00:15:49;9.30;99.90
31542;DHT22;18152;49.986;8.646;2022-10-31T00:18:14;9.30;99.90
31542;DHT22;18152;49.986;8.646;2022-10-31T00:20:40;9.30;99.90
31542;DHT22;18152;49.986;8.646;2022-10-31T00:23:06;9.20;99.90
31542;DHT22;18152;49.986;8.646;2022-10-31T00:25:37;9.30;99.90
31542;DHT22;18152;49.986;8.646;2022-10-31T00:28:06;9.20;99.90
31542;DHT22;18152;49.986;8.646;2022-10-31T00:30:31;9.20;99.90
31542;DHT22;18152;49.986;8.646;2022-10-31T00:32:57;9.20;99.90
31542;DHT22;18152;49.986;8.646;2022-10-31T00:35:23;9.20;99.90
31542;DHT22;18152;49.986;8.646;2022-10-31T00:37:48;9.20;99.90
31542;DHT22;18152;49.986;8.646;2022-10-31T00:40:14;9.20;99.90
31542;DHT22;18152;49.986;8.646;2022-10-31T00:42:40;9.20;99.90
31542;DHT22;18152;49.986;8.646;2022-10-31T00:45:10;9.20;99.90
31542;DHT22;18152;49.986;8.646;2022-10-31T00:47:36;9.20;99.90
31542;DHT22;18152;49.986;8.646;2022-10-31T00:50:03;9.10;99.90
31542;DHT22;18152;49.986;8.646;2022-10-31T00:52:29;9.10;99.90
31542;DHT22;18152;49.986;8.646;2022-10-31T00:54:54;9.10;99.90
31542;DHT22;18152;49.986;8.646;2022-10-31T00:57:20;9.00;99.90
31542;DHT22;18152;49.986;8.646;2022-10-31T00:59:46;9.00;99.90
31542;DHT22;18152;49.986;8.646;2022-10-31T01:02:11;9.00;99.90
31542;DHT22;18152;49.986;8.646;2022-10-31T01:04:37;9.10;99.90
31542;DHT22;18152;49.986;8.646;2022-10-31T01:07:02;9.10;99.90
31542;DHT22;18152;49.986;8.646;2022-10-31T01:09:28;9.10;99.90
31542;DHT22;18152;49.986;8.646;2022-10-31T01:11:53;9.10;99.90
31542;DHT22;18152;49.986;8.646;2022-10-31T01:14:19;9.10;99.90
31542;DHT22;18152;49.986;8.646;2022-10-31T01:16:44;9.00;99.90
31542;DHT22;18152;49.986;8.646;2022-10-31T01:19:10;9.00;99.90
31542;DHT22;18152;49.986;8.646;2022-10-31T01:21:36;9.00;99.90
31542;DHT22;18152;49.986;8.646;2022-10-31T01:24:01;9.00;99.90
31542;DHT22;18152;49.986;8.646;2022-10-31T01:26:31;9.00;99.90
31542;DHT22;18152;49.986;8.646;2022-10-31T01:29:06;8.90;99.90
31542;DHT22;18152;49.986;8.646;2022-10-31T01:31:35;9.00;99.90
31542;DHT22;18152;49.986;8.646;2022-10-31T01:34:01;9.00;99.90
31542;DHT22;18152;49.986;8.646;2022-10-31T01:36:37;9.00;99.90
31542;DHT22;18152;49.986;8.646;2022-10-31T01:39:11;8.90;99.90
31542;DHT22;18152;49.986;8.646;2022-10-31T01:41:45;8.90;99.90
31542;DHT22;18152;49.986;8.646;2022-10-31T01:47:05;9.00;99.90
31542;DHT22;18152;49.986;8.646;2022-10-31T01:49:42;9.00;99.90
31542;DHT22;18152;49.986;8.646;2022-10-31T01:52:17;9.00;99.90
31542;DHT22;18152;49.986;8.646;2022-10-31T01:54:49;8.90;99.90
31542;DHT22;18152;49.986;8.646;2022-10-31T01:57:18;8.90;99.90
31542;DHT22;18152;49.986;8.646;2022-10-31T01:59:48;8.90;99.90
31542;DHT22;18152;49.986;8.646;2022-10-31T02:02:15;8.90;99.90
31542;DHT22;18152;49.986;8.646;2022-10-31T02:04:41;8.90;99.90
31542;DHT22;18152;49.986;8.646;2022-10-31T02:07:14;8.80;99.90
31542;DHT22;18152;49.986;8.646;2022-10-31T02:09:43;8.80;99.90
31542;DHT22;18152;49.986;8.646;2022-10-31T02:12:10;8.80;99.90
31542;DHT22;18152;49.986;8.646;2022-10-31T02:14:38;8.80;99.90
31542;DHT22;18152;49.986;8.646;2022-10-31T02:17:04;8.80;99.90
31542;DHT22;18152;49.986;8.646;2022-10-31T02:19:41;8.80;99.90
31542;DHT22;18152;49.986;8.646;2022-10-31T02:22:30;8.80;99.90
31542;DHT22;18152;49.986;8.646;2022-10-31T02:25:26;8.80;99.90
31542;DHT22;18152;49.986;8.646;2022-10-31T02:30:25;8.80;99.90
31542;DHT22;18152;49.986;8.646;2022-10-31T02:38:50;8.80;99.90
31542;DHT22;18152;49.986;8.646;2022-10-31T02:41:46;8.80;99.90
31542;DHT22;18152;49.986;8.646;2022-10-31T02:47:14;8.70;99.90
31542;DHT22;18152;49.986;8.646;2022-10-31T02:50:02;8.70;99.90
31542;DHT22;18152;49.986;8.646;2022-10-31T02:52:32;8.80;99.90
31542;DHT22;18152;49.986;8.646;2022-10-31T02:54:58;8.70;99.90
31542;DHT22;18152;49.986;8.646;2022-10-31T02:57:28;8.80;99.90
31542;DHT22;18152;49.986;8.646;2022-10-31T03:00:04;8.80;99.90
31542;DHT22;18152;49.986;8.646;2022-10-31T03:11:00;8.70;99.90
31542;DHT22;18152;49.986;8.646;2022-10-31T03:19:06;8.70;99.90
31542;DHT22;18152;49.986;8.646;2022-10-31T03:21:53;8.70;99.90
31542;DHT22;18152;49.986;8.646;2022-10-31T03:24:22;8.70;99.90
31542;DHT22;18152;49.986;8.646;2022-10-31T03:26:51;8.70;99.90
31542;DHT22;18152;49.986;8.646;2022-10-31T03:29:22;8.70;99.90
31542;DHT22;18152;49.986;8.646;2022-10-31T03:31:55;8.70;99.90
31542;DHT22;18152;49.986;8.646;2022-10-31T03:34:22;8.70;99.90
31542;DHT22;18152;49.986;8.646;2022-10-31T03:36:54;8.80;99.90
31542;DHT22;18152;49.986;8.646;2022-10-31T03:39:22;8.80;99.90
31542;DHT22;18152;49.986;8.646;2022-10-31T03:41:56;8.80;99.90
31542;DHT22;18152;49.986;8.646;2022-10-31T03:44:24;8.80;99.90
31542;DHT22;18152;49.986;8.646;2022-10-31T03:46:50;8.80;99.90
31542;DHT22;18152;49.986;8.646;2022-10-31T03:49:17;8.70;99.90
31542;DHT22;18152;49.986;8.646;2022-10-31T03:51:59;8.70;99.90
31542;DHT22;18152;49.986;8.646;2022-10-31T03:54:44;8.70;99.90
31542;DHT22;18152;49.986;8.646;2022-10-31T04:00:14;8.70;99.90
31542;DHT22;18152;49.986;8.646;2022-10-31T04:02:45;8.70;99.90
31542;DHT22;18152;49.986;8.646;2022-10-31T04:05:13;8.70;99.90
31542;DHT22;18152;49.986;8.646;2022-10-31T04:07:43;8.70;99.90
31542;DHT22;18152;49.986;8.646;2022-10-31T04:10:13;8.70;99.90
31542;DHT22;18152;49.986;8.646;2022-10-31T04:12:39;8.70;99.90
31542;DHT22;18152;49.986;8.646;2022-10-31T04:15:07;8.70;99.90
31542;DHT22;18152;49.986;8.646;2022-10-31T04:17:37;8.60;99.90
31542;DHT22;18152;49.986;8.646;2022-10-31T04:20:04;8.60;99.90
31542;DHT22;18152;49.986;8.646;2022-10-31T04:22:31;8.60;99.90
31542;DHT22;18152;49.986;8.646;2022-10-31T04:24:56;8.60;99.90
31542;DHT22;18152;49.986;8.646;2022-10-31T04:27:22;8.70;99.90
31542;DHT22;18152;49.986;8.646;2022-10-31T04:29:47;8.70;99.90
31542;DHT22;18152;49.986;8.646;2022-10-31T04:32:13;8.70;99.90
31542;DHT22;18152;49.986;8.646;2022-10-31T04:34:38;8.60;99.90
31542;DHT22;18152;49.986;8.646;2022-10-31T04:37:04;8.60;99.90
31542;DHT22;18152;49.986;8.646;2022-10-31T04:39:30;8.60;99.90
31542;DHT22;18152;49.986;8.646;2022-10-31T04:41:55;8.60;99.90
31542;DHT22;18152;49.986;8.646;2022-10-31T04:44:21;8.60;99.90
31542;DHT22;18152;49.986;8.646;2022-10-31T04:46:46;8.50;99.90
31542;DHT22;18152;49.986;8.646;2022-10-31T04:49:12;8.50;99.90
31542;DHT22;18152;49.986;8.646;2022-10-31T04:51:37;8.50;99.90
31542;DHT22;18152;49.986;8.646;2022-10-31T04:54:03;8.50;99.90
31542;DHT22;18152;49.986;8.646;2022-10-31T04:56:29;8.50;99.90
31542;DHT22;18152;49.986;8.646;2022-10-31T04:58:54;8.50;99.90
31542;DHT22;18152;49.986;8.646;2022-10-31T05:01:20;8.50;99.90
31542;DHT22;18152;49.986;8.646;2022-10-31T05:03:46;8.50;99.90
31542;DHT22;18152;49.986;8.646;2022-10-31T05:06:11;8.50;99.90
31542;DHT22;18152;49.986;8.646;2022-10-31T05:08:37;8.50;99.90
31542;DHT22;18152;49.986;8.646;2022-10-31T05:11:03;8.50;99.90
31542;DHT22;18152;49.986;8.646;2022-10-31T05:13:29;8.50;99.90
31542;DHT22;18152;49.986;8.646;2022-10-31T05:15:55;8.50;99.90
31542;DHT22;18152;49.986;8.646;2022-10-31T05:18:21;8.50;99.90
31542;DHT22;18152;49.986;8.646;2022-10-31T05:20:47;8.50;99.90
31542;DHT22;18152;49.986;8.646;2022-10-31T05:23:12;8.50;99.90
31542;DHT22;18152;49.986;8.646;2022-10-31T05:25:40;8.50;99.90
31542;DHT22;18152;49.986;8.646;2022-10-31T05:28:06;8.50;99.90
31542;DHT22;18152;49.986;8.646;2022-10-31T05:30:32;8.60;99.90
31542;DHT22;18152;49.986;8.646;2022-10-31T05:32:58;8.60;99.90
31542;DHT22;18152;49.986;8.646;2022-10-31T05:35:32;8.60;99.90
31542;DHT22;18152;49.986;8.646;2022-10-31T05:37:58;8.60;99.90
31542;DHT22;18152;49.986;8.646;2022-10-31T05:40:24;8.50;99.90
31542;DHT22;18152;49.986;8.646;2022-10-31T05:42:51;8.60;99.90
31542;DHT22;18152;49.986;8.646;2022-10-31T05:45:18;8.60;99.90
31542;DHT22;18152;49.986;8.646;2022-10-31T05:47:55;8.60;99.90
31542;DHT22;18152;49.986;8.646;2022-10-31T05:50:22;8.70;99.90
31542;DHT22;18152;49.986;8.646;2022-10-31T05:53:00;8.70;99.90
31542;DHT22;18152;49.986;8.646;2022-10-31T05:55:27;8.80;99.90
31542;DHT22;18152;49.986;8.646;2022-10-31T05:57:54;8.80;99.90
31542;DHT22;18152;49.986;8.646;2022-10-31T06:00:20;8.80;99.90
31542;DHT22;18152;49.986;8.646;2022-10-31T06:02:46;8.90;99.90
31542;DHT22;18152;49.986;8.646;2022-10-31T06:05:13;8.90;99.90
31542;DHT22;18152;49.986;8.646;2022-10-31T06:07:38;8.90;99.90
31542;DHT22;18152;49.986;8.646;2022-10-31T06:10:06;8.90;99.90
31542;DHT22;18152;49.986;8.646;2022-10-31T06:12:32;8.90;99.90
31542;DHT22;18152;49.986;8.646;2022-10-31T06:15:04;8.90;99.90
31542;DHT22;18152;49.986;8.646;2022-10-31T06:17:30;8.90;99.90
31542;DHT22;18152;49.986;8.646;2022-10-31T06:19:55;8.90;99.90
31542;DHT22;18152;49.986;8.646;2022-10-31T06:22:21;8.90;99.90
31542;DHT22;18152;49.986;8.646;2022-10-31T06:24:46;8.90;99.90
31542;DHT22;18152;49.986;8.646;2022-10-31T06:27:12;8.90;99.90
31542;DHT22;18152;49.986;8.646;2022-10-31T06:29:37;8.90;99.90
31542;DHT22;18152;49.986;8.646;2022-10-31T06:32:03;8.90;99.90
31542;DHT22;18152;49.986;8.646;2022-10-31T06:34:29;9.00;99.90
31542;DHT22;18152;49.986;8.646;2022-10-31T06:36:54;9.10;99.90
31542;DHT22;18152;49.986;8.646;2022-10-31T06:39:20;9.00;99.90
31542;DHT22;18152;49.986;8.646;2022-10-31T06:41:47;9.00;99.90
31542;DHT22;18152;49.986;8.646;2022-10-31T06:44:13;9.10;99.90
31542;DHT22;18152;49.986;8.646;2022-10-31T06:46:39;9.20;99.90
31542;DHT22;18152;49.986;8.646;2022-10-31T06:49:04;9.30;99.90
31542;DHT22;18152;49.986;8.646;2022-10-31T06:51:30;9.40;99.90
31542;DHT22;18152;49.986;8.646;2022-10-31T06:53:56;9.40;99.90
31542;DHT22;18152;49.986;8.646;2022-10-31T06:56:21;9.50;99.90
31542;DHT22;18152;49.986;8.646;2022-10-31T06:58:47;9.60;99.90
31542;DHT22;18152;49.986;8.646;2022-10-31T07:01:12;9.60;99.90
31542;DHT22;18152;49.986;8.646;2022-10-31T07:03:38;9.70;99.90
31542;DHT22;18152;49.986;8.646;2022-10-31T07:06:04;9.80;99.90
31542;DHT22;18152;49.986;8.646;2022-10-31T07:08:29;9.80;99.90
31542;DHT22;18152;49.986;8.646;2022-10-31T07:10:56;9.90;99.90
31542;DHT22;18152;49.986;8.646;2022-10-31T07:13:23;10.00;99.90
31542;DHT22;18152;49.986;8.646;2022-10-31T07:15:54;10.10;99.90
31542;DHT22;18152;49.986;8.646;2022-10-31T07:18:20;10.20;99.90
31542;DHT22;18152;49.986;8.646;2022-10-31T07:20:47;10.20;99.90
31542;DHT22;18152;49.986;8.646;2022-10-31T07:23:13;10.30;99.90
31542;DHT22;18152;49.986;8.646;2022-10-31T07:25:39;10.30;99.90
31542;DHT22;18152;49.986;8.646;2022-10-31T07:28:05;10.40;99.90
31542;DHT22;18152;49.986;8.646;2022-10-31T07:30:30;10.50;99.90
31542;DHT22;18152;49.986;8.646;2022-10-31T07:32:56;10.50;99.90
31542;DHT22;18152;49.986;8.646;2022-10-31T07:35:26;10.70;99.90
31542;DHT22;18152;49.986;8.646;2022-10-31T07:37:52;10.70;99.90
31542;DHT22;18152;49.986;8.646;2022-10-31T07:40:18;10.80;99.90
31542;DHT22;18152;49.986;8.646;2022-10-31T07:42:50;10.90;99.90
31542;DHT22;18152;49.986;8.646;2022-10-31T07:45:18;11.00;99.90
31542;DHT22;18152;49.986;8.646;2022-10-31T07:47:49;11.00;99.90
31542;DHT22;18152;49.986;8.646;2022-10-31T07:50:23;11.00;99.90
31542;DHT22;18152;49.986;8.646;2022-10-31T07:52:58;11.10;99.90
31542;DHT22;18152;49.986;8.646;2022-10-31T07:55:25;11.30;99.90
31542;DHT22;18152;49.986;8.646;2022-10-31T07:57:58;11.30;99.90
31542;DHT22;18152;49.986;8.646;2022-10-31T08:00:24;11.40;99.90
31542;DHT22;18152;49.986;8.646;2022-10-31T08:03:01;11.50;99.90
31542;DHT22;18152;49.986;8.646;2022-10-31T08:05:27;11.60;99.90
31542;DHT22;18152;49.986;8.646;2022-10-31T08:07:52;11.60;99.90
31542;DHT22;18152;49.986;8.646;2022-10-31T08:10:18;11.70;99.90
31542;DHT22;18152;49.986;8.646;2022-10-31T08:12:44;11.70;99.90
31542;DHT22;18152;49.986;8.646;2022-10-31T08:15:10;11.80;99.90
31542;DHT22;18152;49.986;8.646;2022-10-31T08:17:36;11.80;99.90
31542;DHT22;18152;49.986;8.646;2022-10-31T08:20:05;11.80;99.90
31542;DHT22;18152;49.986;8.646;2022-10-31T08:22:31;11.90;99.90
31542;DHT22;18152;49.986;8.646;2022-10-31T08:24:57;11.90;99.90
31542;DHT22;18152;49.986;8.646;2022-10-31T08:27:22;12.00;99.90
31542;DHT22;18152;49.986;8.646;2022-10-31T08:29:48;12.10;99.90
31542;DHT22;18152;49.986;8.646;2022-10-31T08:32:14;12.00;99.90
31542;DHT22;18152;49.986;8.646;2022-10-31T08:34:39;12.00;99.90
31542;DHT22;18152;49.986;8.646;2022-10-31T08:37:05;12.00;99.90
31542;DHT22;18152;49.986;8.646;2022-10-31T08:39:30;12.10;99.90
31542;DHT22;18152;49.986;8.646;2022-10-31T08:41:56;12.20;99.90
31542;DHT22;18152;49.986;8.646;2022-10-31T08:44:21;12.20;99.90
31542;DHT22;18152;49.986;8.646;2022-10-31T08:46:47;12.20;99.90
31542;DHT22;18152;49.986;8.646;2022-10-31T08:49:13;12.30;99.90
31542;DHT22;18152;49.986;8.646;2022-10-31T08:51:38;12.40;99.90
31542;DHT22;18152;49.986;8.646;2022-10-31T08:54:04;12.50;99.90
31542;DHT22;18152;49.986;8.646;2022-10-31T08:56:30;12.40;99.90
31542;DHT22;18152;49.986;8.646;2022-10-31T08:58:55;12.50;99.90
31542;DHT22;18152;49.986;8.646;2022-10-31T09:01:21;12.50;99.90
31542;DHT22;18152;49.986;8.646;2022-10-31T09:03:46;12.50;99.90
31542;DHT22;18152;49.986;8.646;2022-10-31T09:06:12;12.50;99.90
31542;DHT22;18152;49.986;8.646;2022-10-31T09:08:38;12.50;99.90
31542;DHT22;18152;49.986;8.646;2022-10-31T09:11:04;12.60;99.90
31542;DHT22;18152;49.986;8.646;2022-10-31T09:13:31;12.60;99.90
31542;DHT22;18152;49.986;8.646;2022-10-31T09:15:57;12.60;99.90
31542;DHT22;18152;49.986;8.646;2022-10-31T09:18:25;12.70;99.90
31542;DHT22;18152;49.986;8.646;2022-10-31T09:20:54;13.00;99.90
31542;DHT22;18152;49.986;8.646;2022-10-31T09:23:21;13.20;99.90
31542;DHT22;18152;49.986;8.646;2022-10-31T09:25:49;13.20;99.90
31542;DHT22;18152;49.986;8.646;2022-10-31T09:28:17;13.30;99.90
31542;DHT22;18152;49.986;8.646;2022-10-31T09:30:46;13.40;99.90
31542;DHT22;18152;49.986;8.646;2022-10-31T09:33:13;13.40;99.90
31542;DHT22;18152;49.986;8.646;2022-10-31T09:35:40;13.50;99.90
31542;DHT22;18152;49.986;8.646;2022-10-31T09:38:10;13.80;99.90
31542;DHT22;18152;49.986;8.646;2022-10-31T09:46:14;14.30;99.90
31542;DHT22;18152;49.986;8.646;2022-10-31T09:55:12;14.80;99.90
31542;DHT22;18152;49.986;8.646;2022-10-31T09:57:40;15.00;99.90
31542;DHT22;18152;49.986;8.646;2022-10-31T10:00:10;15.10;99.90
31542;DHT22;18152;49.986;8.646;2022-10-31T10:02:53;15.30;99.90
31542;DHT22;18152;49.986;8.646;2022-10-31T10:05:27;15.40;99.90
31542;DHT22;18152;49.986;8.646;2022-10-31T10:08:01;15.40;99.90
31542;DHT22;18152;49.986;8.646;2022-10-31T10:11:00;15.50;99.90
31542;DHT22;18152;49.986;8.646;2022-10-31T10:13:47;15.40;99.90
31542;DHT22;18152;49.986;8.646;2022-10-31T10:23:04;15.30;99.90
31542;DHT22;18152;49.986;8.646;2022-10-31T10:25:38;15.30;99.90
31542;DHT22;18152;49.986;8.646;2022-10-31T10:28:25;15.20;99.90
31542;DHT22;18152;49.986;8.646;2022-10-31T10:31:11;15.20;99.90
31542;DHT22;18152;49.986;8.646;2022-10-31T10:36:37;15.30;99.90
31542;DHT22;18152;49.986;8.646;2022-10-31T10:41:34;15.40;99.90
31542;DHT22;18152;49.986;8.646;2022-10-31T10:44:00;15.40;99.90
31542;DHT22;18152;49.986;8.646;2022-10-31T10:49:52;15.50;99.90
31542;DHT22;18152;49.986;8.646;2022-10-31T10:52:28;15.60;99.90
31542;DHT22;18152;49.986;8.646;2022-10-31T11:00:34;15.80;99.90
31542;DHT22;18152;49.986;8.646;2022-10-31T11:03:01;15.80;99.90
31542;DHT22;18152;49.986;8.646;2022-10-31T11:05:50;15.90;99.90
31542;DHT22;18152;49.986;8.646;2022-10-31T11:08:27;16.00;99.90
31542;DHT22;18152;49.986;8.646;2022-10-31T11:14:15;16.00;99.90
31542;DHT22;18152;49.986;8.646;2022-10-31T11:16:44;16.10;99.90
31542;DHT22;18152;49.986;8.646;2022-10-31T11:19:17;16.10;99.90
31542;DHT22;18152;49.986;8.646;2022-10-31T11:21:44;16.20;99.90
31542;DHT22;18152;49.986;8.646;2022-10-31T11:26:41;16.40;99.90
31542;DHT22;18152;49.986;8.646;2022-10-31T11:29:17;16.60;99.90
31542;DHT22;18152;49.986;8.646;2022-10-31T11:31:45;16.60;99.90
31542;DHT22;18152;49.986;8.646;2022-10-31T11:34:25;16.60;99.90
31542;DHT22;18152;49.986;8.646;2022-10-31T11:36:52;16.80;99.90
31542;DHT22;18152;49.986;8.646;2022-10-31T11:39:23;16.70;99.90
31542;DHT22;18152;49.986;8.646;2022-10-31T11:41:52;16.80;99.90
31542;DHT22;18152;49.986;8.646;2022-10-31T11:44:42;16.90;99.90
31542;DHT22;18152;49.986;8.646;2022-10-31T11:47:14;17.10;99.90
31542;DHT22;18152;49.986;8.646;2022-10-31T11:49:42;17.10;99.90
31542;DHT22;18152;49.986;8.646;2022-10-31T11:52:15;17.20;99.90
31542;DHT22;18152;49.986;8.646;2022-10-31T11:54:53;17.30;99.90
31542;DHT22;18152;49.986;8.646;2022-10-31T11:57:32;17.20;99.90
31542;DHT22;18152;49.986;8.646;2022-10-31T11:59:59;17.10;99.90
31542;DHT22;18152;49.986;8.646;2022-10-31T12:02:26;17.10;99.90
31542;DHT22;18152;49.986;8.646;2022-10-31T12:05:27;17.10;99.90
31542;DHT22;18152;49.986;8.646;2022-10-31T12:07:59;17.20;99.90
31542;DHT22;18152;49.986;8.646;2022-10-31T12:10:33;17.30;99.90
31542;DHT22;18152;49.986;8.646;2022-10-31T12:13:33;17.30;99.90
31542;DHT22;18152;49.986;8.646;2022-10-31T12:16:05;17.50;99.90
31542;DHT22;18152;49.986;8.646;2022-10-31T12:24:02;17.80;99.90
31542;DHT22;18152;49.986;8.646;2022-10-31T12:34:40;18.40;99.90
31542;DHT22;18152;49.986;8.646;2022-10-31T12:37:47;18.50;99.90
31542;DHT22;18152;49.986;8.646;2022-10-31T12:43:19;18.60;99.90
31542;DHT22;18152;49.986;8.646;2022-10-31T12:45:55;18.80;99.90
31542;DHT22;18152;49.986;8.646;2022-10-31T12:54:32;18.60;99.90
31542;DHT22;18152;49.986;8.646;2022-10-31T12:57:19;18.60;99.90
31542;DHT22;18152;49.986;8.646;2022-10-31T12:59:51;18.70;99.90
31542;DHT22;18152;49.986;8.646;2022-10-31T13:02:35;18.90;99.90
31542;DHT22;18152;49.986;8.646;2022-10-31T13:05:14;18.80;99.90
31542;DHT22;18152;49.986;8.646;2022-10-31T13:08:09;18.80;99.90
31542;DHT22;18152;49.986;8.646;2022-10-31T13:16:37;18.40;99.90
31542;DHT22;18152;49.986;8.646;2022-10-31T13:22:10;18.30;99.90
31542;DHT22;18152;49.986;8.646;2022-10-31T13:24:55;18.30;99.90
31542;DHT22;18152;49.986;8.646;2022-10-31T13:27:29;18.20;99.90
31542;DHT22;18152;49.986;8.646;2022-10-31T13:30:10;18.10;99.90
31542;DHT22;18152;49.986;8.646;2022-10-31T13:36:07;17.90;99.90
31542;DHT22;18152;49.986;8.646;2022-10-31T13:38:22;17.80;99.90
31542;DHT22;18152;49.986;8.646;2022-10-31T13:43:21;17.80;99.90
31542;DHT22;18152;49.986;8.646;2022-10-31T13:45:53;17.70;99.90
31542;DHT22;18152;49.986;8.646;2022-10-31T13:51:06;17.40;99.90
31542;DHT22;18152;49.986;8.646;2022-10-31T13:58:34;17.30;99.90
31542;DHT22;18152;49.986;8.646;2022-10-31T14:01:21;17.20;99.90
31542;DHT22;18152;49.986;8.646;2022-10-31T14:04:01;17.30;99.90
31542;DHT22;18152;49.986;8.646;2022-10-31T14:06:41;17.20;99.90
31542;DHT22;18152;49.986;8.646;2022-10-31T14:09:32;17.10;99.90
31542;DHT22;18152;49.986;8.646;2022-10-31T14:12:07;17.00;99.90
31542;DHT22;18152;49.986;8.646;2022-10-31T14:14:47;16.90;99.90
31542;DHT22;18152;49.986;8.646;2022-10-31T14:17:25;16.90;99.90
31542;DHT22;18152;49.986;8.646;2022-10-31T14:22:41;16.70;99.90
31542;DHT22;18152;49.986;8.646;2022-10-31T14:25:36;16.70;99.90
31542;DHT22;18152;49.986;8.646;2022-10-31T14:28:31;16.70;99.90
31542;DHT22;18152;49.986;8.646;2022-10-31T14:30:58;16.70;99.90
31542;DHT22;18152;49.986;8.646;2022-10-31T14:33:29;16.70;99.90
31542;DHT22;18152;49.986;8.646;2022-10-31T14:36:00;16.80;99.90
31542;DHT22;18152;49.986;8.646;2022-10-31T14:38:54;16.70;99.90
31542;DHT22;18152;49.986;8.646;2022-10-31T14:51:57;17.00;99.90
31542;DHT22;18152;49.986;8.646;2022-10-31T14:54:29;17.00;99.90
31542;DHT22;18152;49.986;8.646;2022-10-31T14:57:05;17.00;99.90
31542;DHT22;18152;49.986;8.646;2022-10-31T14:59:36;16.90;99.90
31542;DHT22;18152;49.986;8.646;2022-10-31T15:04:46;16.60;99.90
31542;DHT22;18152;49.986;8.646;2022-10-31T15:07:23;16.50;99.90
31542;DHT22;18152;49.986;8.646;2022-10-31T15:09:57;16.30;99.90
31542;DHT22;18152;49.986;8.646;2022-10-31T15:12:29;16.20;99.90
31542;DHT22;18152;49.986;8.646;2022-10-31T15:14:54;16.00;99.90
31542;DHT22;18152;49.986;8.646;2022-10-31T15:17:24;15.90;99.90
31542;DHT22;18152;49.986;8.646;2022-10-31T15:19:51;15.70;99.90
31542;DHT22;18152;49.986;8.646;2022-10-31T15:22:20;15.70;99.90
31542;DHT22;18152;49.986;8.646;2022-10-31T15:24:48;15.50;99.90
31542;DHT22;18152;49.986;8.646;2022-10-31T15:27:16;15.40;99.90
31542;DHT22;18152;49.986;8.646;2022-10-31T15:29:54;15.30;99.90
31542;DHT22;18152;49.986;8.646;2022-10-31T15:32:24;15.10;99.90
31542;DHT22;18152;49.986;8.646;2022-10-31T15:34:51;15.10;99.90
31542;DHT22;18152;49.986;8.646;2022-10-31T15:37:26;15.10;99.90
31542;DHT22;18152;49.986;8.646;2022-10-31T15:39:52;15.00;99.90
31542;DHT22;18152;49.986;8.646;2022-10-31T15:42:21;15.00;99.90
31542;DHT22;18152;49.986;8.646;2022-10-31T15:45:05;15.00;99.90
31542;DHT22;18152;49.986;8.646;2022-10-31T15:47:32;14.90;99.90
31542;DHT22;18152;49.986;8.646;2022-10-31T15:49:59;14.90;99.90
31542;DHT22;18152;49.986;8.646;2022-10-31T15:52:29;14.80;99.90
31542;DHT22;18152;49.986;8.646;2022-10-31T15:55:21;14.70;99.90
31542;DHT22;18152;49.986;8.646;2022-10-31T15:57:51;14.70;99.90
31542;DHT22;18152;49.986;8.646;2022-10-31T16:00:29;14.70;99.90
31542;DHT22;18152;49.986;8.646;2022-10-31T16:03:06;14.70;99.90
31542;DHT22;18152;49.986;8.646;2022-10-31T16:05:45;14.70;99.90
31542;DHT22;18152;49.986;8.646;2022-10-31T16:13:38;14.60;99.90
31542;DHT22;18152;49.986;8.646;2022-10-31T16:16:16;14.50;99.90
31542;DHT22;18152;49.986;8.646;2022-10-31T16:18:43;14.50;99.90
31542;DHT22;18152;49.986;8.646;2022-10-31T16:21:09;14.50;99.90
31542;DHT22;18152;49.986;8.646;2022-10-31T16:23:38;14.50;99.90
31542;DHT22;18152;49.986;8.646;2022-10-31T16:26:08;14.60;99.90
31542;DHT22;18152;49.986;8.646;2022-10-31T16:28:34;14.60;99.90
31542;DHT22;18152;49.986;8.646;2022-10-31T16:31:00;14.70;99.90
31542;DHT22;18152;49.986;8.646;2022-10-31T16:33:36;14.80;99.90
31542;DHT22;18152;49.986;8.646;2022-10-31T16:38:53;14.90;99.90
31542;DHT22;18152;49.986;8.646;2022-10-31T16:41:19;15.00;99.90
31542;DHT22;18152;49.986;8.646;2022-10-31T16:43:45;14.90;99.90
31542;DHT22;18152;49.986;8.646;2022-10-31T16:46:26;15.00;99.90
31542;DHT22;18152;49.986;8.646;2022-10-31T16:48:53;15.00;99.90
31542;DHT22;18152;49.986;8.646;2022-10-31T16:51:18;14.90;99.90
31542;DHT22;18152;49.986;8.646;2022-10-31T16:53:44;14.80;99.90
31542;DHT22;18152;49.986;8.646;2022-10-31T16:56:16;14.70;99.90
31542;DHT22;18152;49.986;8.646;2022-10-31T16:58:42;14.90;99.90
31542;DHT22;18152;49.986;8.646;2022-10-31T17:01:09;15.00;99.90
31542;DHT22;18152;49.986;8.646;2022-10-31T17:03:36;14.90;99.90
31542;DHT22;18152;49.986;8.646;2022-10-31T17:06:02;14.80;99.90
31542;DHT22;18152;49.986;8.646;2022-10-31T17:08:28;14.60;99.90
31542;DHT22;18152;49.986;8.646;2022-10-31T17:10:56;14.60;99.90
31542;DHT22;18152;49.986;8.646;2022-10-31T17:13:24;14.50;99.90
31542;DHT22;18152;49.986;8.646;2022-10-31T17:15:53;14.40;99.90
31542;DHT22;18152;49.986;8.646;2022-10-31T17:18:19;14.30;99.90
31542;DHT22;18152;49.986;8.646;2022-10-31T17:20:46;14.30;99.90
31542;DHT22;18152;49.986;8.646;2022-10-31T17:23:14;14.20;99.90
31542;DHT22;18152;49.986;8.646;2022-10-31T17:25:40;14.20;99.90
31542;DHT22;18152;49.986;8.646;2022-10-31T17:28:06;14.10;99.90
31542;DHT22;18152;49.986;8.646;2022-10-31T17:30:32;14.10;99.90
31542;DHT22;18152;49.986;8.646;2022-10-31T17:32:59;14.10;99.90
31542;DHT22;18152;49.986;8.646;2022-10-31T17:35:25;14.00;99.90
31542;DHT22;18152;49.986;8.646;2022-10-31T17:37:50;14.00;99.90
31542;DHT22;18152;49.986;8.646;2022-10-31T17:40:18;14.00;99.90
31542;DHT22;18152;49.986;8.646;2022-10-31T17:42:49;14.00;99.90
31542;DHT22;18152;49.986;8.646;2022-10-31T17:45:15;14.00;99.90
31542;DHT22;18152;49.986;8.646;2022-10-31T17:47:40;13.90;99.90
31542;DHT22;18152;49.986;8.646;2022-10-31T17:50:06;13.90;99.90
31542;DHT22;18152;49.986;8.646;2022-10-31T17:52:32;13.90;99.90
31542;DHT22;18152;49.986;8.646;2022-10-31T17:54:57;13.80;99.90
31542;DHT22;18152;49.986;8.646;2022-10-31T17:57:23;13.70;99.90
31542;DHT22;18152;49.986;8.646;2022-10-31T17:59:48;13.60;99.90
31542;DHT22;18152;49.986;8.646;2022-10-31T18:02:14;13.50;99.90
31542;DHT22;18152;49.986;8.646;2022-10-31T18:04:40;13.40;99.90
31542;DHT22;18152;49.986;8.646;2022-10-31T18:07:05;13.40;99.90
31542;DHT22;18152;49.986;8.646;2022-10-31T18:09:32;13.40;99.90
31542;DHT22;18152;49.986;8.646;2022-10-31T18:11:59;13.30;99.90
31542;DHT22;18152;49.986;8.646;2022-10-31T18:14:24;13.20;99.90
31542;DHT22;18152;49.986;8.646;2022-10-31T18:16:50;13.10;99.90